Time;durP1;ratioP1;P1;durP2;ratioP2;P2;SDS_P1;SDS_P2;PMS_P1;PMS_P2;Temp;Humidity;BMP_temperature;BMP_pressure;BME280_temperature;BME280_humidity;BME280_pressure;Samples;Min_cycle;Max_cycle;Signal;HPM_P1;HPM_P2
2022/07/13 00:01:14;;;;;;;10.45;3.13;;;;;;;;;;6151161;23;20053;-59
2022/07/13 00:03:41;;;;;;;9.25;2.90;;;;;;;;;;6150775;23;20076;-59
2022/07/13 00:06:09;;;;;;;;;;;;;;;;;;6150497;23;20025;-60
2022/07/13 00:08:36;;;;;;;8.20;2.97;;;;;;;;;;6150033;23;19917;-66
2022/07/13 00:11:03;;;;;;;10.60;3.20;;;;;;;;;;6149159;23;20025;-66
2022/07/13 00:13:31;;;;;;;9.85;3.47;;;;;;;;;;6150923;23;20044;-65
2022/07/13 00:15:58;;;;;;;11.68;3.80;;;;;;;;;;6148892;23;20459;-66
2022/07/13 00:18:26;;;;;;;7.45;3.08;;;;;;;;;;6150247;23;20402;-66
2022/07/13 07:03:58;;;;;;;8.50;2.55;;;;;;;;;;6242112;23;20074;-45
2022/07/13 07:06:25;;;;;;;6.60;2.70;;;;;;;;;;6239971;23;20032;-48
2022/07/13 07:08:53;;;;;;;;;;;;;;;;;;6240830;23;20021;-58
2022/07/13 07:11:20;;;;;;;6.05;2.92;;;;;;;;;;6239919;23;20252;-58
2022/07/13 07:13:49;;;;;;;9.52;2.75;;;;;;;;;;6240525;23;20098;-58
2022/07/13 07:16:16;;;;;;;9.25;3.13;;;;;;;;;;6239943;23;20027;-58
2022/07/13 07:18:43;;;;;;;11.95;2.78;;;;;;;;;;6239367;23;20461;-58
2022/07/13 07:21:30;;;;;;;8.88;2.60;;;;;;;;;;6240492;23;20513;-58
2022/07/13 07:23:58;;;;;;;4.72;2.70;;;;;;;;;;6240736;23;20531;-59
2022/07/13 07:26:25;;;;;;;;;;;;;;;;;;6239732;23;20324;-59
2022/07/13 07:28:52;;;;;;;9.52;2.83;;;;;;;;;;6238318;23;20332;-59
2022/07/13 07:31:19;;;;;;;9.98;3.45;;;;;;;;;;6240653;23;20024;-59
2022/07/13 07:33:47;;;;;;;;;;;;;;;;;;6238837;23;20024;-58
2022/07/13 07:36:16;;;;;;;13.75;3.08;;;;;;;;;;6238131;23;20371;-59
2022/07/13 07:38:44;;;;;;;10.40;3.00;;;;;;;;;;6213998;23;20027;-58
2022/07/13 07:41:11;;;;;;;7.07;2.88;;;;;;;;;;6239854;23;20024;-58
2022/07/13 07:43:39;;;;;;;13.02;3.30;;;;;;;;;;6240998;23;20024;-58
2022/07/13 07:46:06;;;;;;;8.30;2.90;;;;;;;;;;6239340;23;20085;-59
2022/07/13 07:48:33;;;;;;;8.13;3.25;;;;;;;;;;6240578;23;20016;-59
2022/07/13 07:51:02;;;;;;;11.82;3.50;;;;;;;;;;6239953;23;20024;-59
2022/07/13 07:53:30;;;;;;;11.48;3.58;;;;;;;;;;6240366;23;20059;-59
2022/07/13 07:55:57;;;;;;;9.75;3.28;;;;;;;;;;6240742;23;20024;-59
2022/07/13 07:58:24;;;;;;;9.50;3.08;;;;;;;;;;6241099;23;20028;-59
2022/07/13 08:00:52;;;;;;;7.93;3.20;;;;;;;;;;6239693;23;20051;-58
2022/07/13 08:03:19;;;;;;;8.77;3.15;;;;;;;;;;6239927;23;20492;-62
2022/07/13 08:05:51;;;;;;;9.40;2.83;;;;;;;;;;6240050;23;20024;-58
2022/07/13 08:08:19;;;;;;;7.97;2.95;;;;;;;;;;6239728;23;20020;-58
2022/07/13 08:10:46;;;;;;;8.70;2.65;;;;;;;;;;6239681;23;20028;-57
2022/07/13 08:13:13;;;;;;;10.82;3.28;;;;;;;;;;6213888;23;20020;-58
2022/07/13 08:15:41;;;;;;;6.32;2.85;;;;;;;;;;6240107;23;20078;-58
2022/07/13 08:18:09;;;;;;;6.13;2.90;;;;;;;;;;6240290;23;20028;-57
2022/07/13 08:20:36;;;;;;;10.05;2.92;;;;;;;;;;6238784;23;20024;-58
2022/07/13 08:23:50;;;;;;;6.85;2.70;;;;;;;;;;6240506;23;20395;-64
2022/07/13 08:25:51;;;;;;;7.32;2.75;;;;;;;;;;6240225;23;20024;-63
2022/07/13 08:28:19;;;;;;;10.38;2.95;;;;;;;;;;6241014;23;20105;-63
2022/07/13 08:30:46;;;;;;;6.40;2.80;;;;;;;;;;6240581;23;20028;-64
2022/07/13 08:33:13;;;;;;;;;;;;;;;;;;6241123;23;20047;-64
2022/07/13 08:38:35;;;;;;;10.23;3.03;;;;;;;;;;6241076;23;20020;-59
2022/07/13 08:41:03;;;;;;;9.15;3.55;;;;;;;;;;6241321;23;20016;-58
2022/07/13 08:43:30;;;;;;;10.35;3.25;;;;;;;;;;6241561;23;20078;-63
2022/07/13 08:45:58;;;;;;;5.95;2.75;;;;;;;;;;6241276;23;20074;-66
2022/07/13 08:48:31;;;;;;;8.32;3.17;;;;;;;;;;6240608;23;20055;-66
2022/07/13 08:50:59;;;;;;;10.18;2.90;;;;;;;;;;6239202;23;20024;-66
2022/07/13 08:53:26;;;;;;;7.97;3.38;;;;;;;;;;6240485;23;20089;-66
2022/07/13 08:55:56;;;;;;;10.98;3.17;;;;;;;;;;6240058;23;20056;-65
2022/07/13 08:58:23;;;;;;;9.23;3.40;;;;;;;;;;6240569;23;20032;-64
2022/07/13 09:00:59;;;;;;;8.23;3.10;;;;;;;;;;6214680;23;20056;-58
2022/07/13 09:03:26;;;;;;;7.43;3.00;;;;;;;;;;6239101;23;20099;-59
2022/07/13 09:05:56;;;;;;;8.10;2.92;;;;;;;;;;6239408;23;20020;-59
2022/07/13 09:08:26;;;;;;;11.20;3.25;;;;;;;;;;6239797;23;20059;-59
2022/07/13 09:11:02;;;;;;;10.77;3.25;;;;;;;;;;6240107;23;20028;-59
2022/07/13 09:13:34;;;;;;;9.27;3.08;;;;;;;;;;6239357;23;20024;-59
2022/07/13 09:16:14;;;;;;;5.05;2.75;;;;;;;;;;6240246;23;20028;-59
2022/07/13 09:18:41;;;;;;;8.93;3.08;;;;;;;;;;6241265;23;20099;-59
2022/07/13 09:21:09;;;;;;;6.13;2.80;;;;;;;;;;6240222;23;20028;-48
2022/07/13 09:23:38;;;;;;;13.27;3.50;;;;;;;;;;6240421;23;20016;-49
2022/07/13 09:26:05;;;;;;;10.57;3.28;;;;;;;;;;6240357;23;20461;-50
2022/07/13 09:28:45;;;;;;;10.57;3.17;;;;;;;;;;6239431;23;20544;-49
2022/07/13 09:31:13;;;;;;;9.95;3.50;;;;;;;;;;6239499;23;20365;-48
2022/07/13 09:33:43;;;;;;;7.65;3.30;;;;;;;;;;6239977;23;20028;-48
2022/07/13 09:36:11;;;;;;;9.45;3.58;;;;;;;;;;6240133;23;20024;-59
2022/07/13 09:38:41;;;;;;;9.85;3.25;;;;;;;;;;6240593;23;20024;-58
2022/07/13 09:41:14;;;;;;;12.93;3.33;;;;;;;;;;6240086;23;20361;-45
2022/07/13 09:47:08;;;;;;;11.90;3.65;;;;;;;;;;6241571;23;20024;-47
2022/07/13 09:49:42;;;;;;;8.82;2.90;;;;;;;;;;6242882;23;20047;-47
2022/07/13 09:52:10;;;;;;;14.13;3.67;;;;;;;;;;6240614;23;20078;-46
2022/07/13 09:54:39;;;;;;;8.40;3.45;;;;;;;;;;6242515;23;20032;-50
2022/07/13 09:57:10;;;;;;;7.13;2.72;;;;;;;;;;6240724;23;20074;-58
2022/07/13 09:59:38;;;;;;;8.68;3.13;;;;;;;;;;6241472;23;20682;-58
2022/07/13 10:02:07;;;;;;;7.55;3.10;;;;;;;;;;6240971;23;20051;-57
2022/07/13 10:04:37;;;;;;;9.48;2.85;;;;;;;;;;6242403;23;20095;-57
2022/07/13 10:07:16;;;;;;;5.95;2.50;;;;;;;;;;6241440;23;20024;-58
2022/07/13 10:09:44;;;;;;;7.00;2.92;;;;;;;;;;6242063;23;20034;-57
2022/07/13 10:12:12;;;;;;;5.50;2.45;;;;;;;;;;6240512;23;20035;-57
2022/07/13 10:14:39;;;;;;;;;;;;;;;;;;6242569;23;20039;-51
2022/07/13 10:17:11;;;;;;;6.53;2.45;;;;;;;;;;6241371;23;20364;-64
2022/07/13 10:19:43;;;;;;;6.65;2.92;;;;;;;;;;6241051;23;20020;-49
2022/07/13 10:22:21;;;;;;;6.57;2.45;;;;;;;;;;6241176;23;20408;-49
2022/07/13 10:24:48;;;;;;;;;;;;;;;;;;6242172;23;20017;-51
2022/07/13 10:27:22;;;;;;;5.85;2.35;;;;;;;;;;6240527;23;19962;-52
2022/07/13 10:30:00;;;;;;;4.40;2.20;;;;;;;;;;6241850;23;20024;-48
2022/07/13 10:32:28;;;;;;;7.85;2.40;;;;;;;;;;6240262;23;20020;-49
2022/07/13 10:35:05;;;;;;;7.15;2.95;;;;;;;;;;6241357;23;20637;-49
2022/07/13 10:37:50;;;;;;;5.72;2.55;;;;;;;;;;6241132;23;20016;-59
2022/07/13 10:40:24;;;;;;;4.90;2.53;;;;;;;;;;6241840;23;20024;-59
2022/07/13 10:42:54;;;;;;;6.65;2.97;;;;;;;;;;6240803;23;20473;-59
2022/07/13 10:45:48;;;;;;;10.32;2.97;;;;;;;;;;6240902;23;20044;-59
2022/07/13 10:48:24;;;;;;;12.05;2.90;;;;;;;;;;6242254;23;20027;-59
2022/07/13 10:50:53;;;;;;;6.72;3.08;;;;;;;;;;6240497;23;20051;-59
2022/07/13 10:53:21;;;;;;;8.30;3.30;;;;;;;;;;6240886;23;20055;-59
2022/07/13 10:55:49;;;;;;;7.32;3.15;;;;;;;;;;6240453;23;20050;-58
2022/07/13 10:58:31;;;;;;;8.77;2.95;;;;;;;;;;6241310;23;20097;-59
2022/07/13 11:00:59;;;;;;;8.93;2.80;;;;;;;;;;6238992;23;20085;-58
2022/07/13 11:03:44;;;;;;;12.13;3.58;;;;;;;;;;6237788;23;20035;-59
2022/07/13 11:06:12;;;;;;;6.80;3.00;;;;;;;;;;6239699;23;20024;-58
2022/07/13 11:08:40;;;;;;;6.28;3.17;;;;;;;;;;6241346;23;20102;-59
2022/07/13 11:11:18;;;;;;;6.38;3.05;;;;;;;;;;6239860;23;20020;-58
2022/07/13 11:13:46;;;;;;;4.22;2.70;;;;;;;;;;6241550;23;20394;-64
2022/07/13 11:16:14;;;;;;;4.50;3.00;;;;;;;;;;6241113;23;20046;-51
2022/07/13 11:18:42;;;;;;;4.55;3.10;;;;;;;;;;6238811;23;20055;-49
2022/07/13 11:21:18;;;;;;;7.13;3.40;;;;;;;;;;6239607;23;20050;-46
2022/07/13 11:26:51;;;;;;;10.50;3.38;;;;;;;;;;6240358;23;20024;-51
2022/07/13 11:29:19;;;;;;;7.22;3.30;;;;;;;;;;6239846;23;20184;-47
2022/07/13 11:31:46;;;;;;;;;;;;;;;;;;6240608;23;20028;-64
2022/07/13 11:34:13;;;;;;;8.00;3.40;;;;;;;;;;6240784;23;19919;-59
2022/07/13 11:36:42;;;;;;;6.93;3.63;;;;;;;;;;6241107;23;20035;-59
2022/07/13 11:39:23;;;;;;;9.95;2.97;;;;;;;;;;6240321;23;20024;-59
2022/07/13 11:41:54;;;;;;;7.95;3.42;;;;;;;;;;6240674;23;20028;-59
2022/07/13 11:44:22;;;;;;;8.85;3.38;;;;;;;;;;6240512;23;20028;-59
2022/07/13 11:46:50;;;;;;;7.45;3.40;;;;;;;;;;6241110;23;20497;-59
2022/07/13 11:49:18;;;;;;;5.55;3.45;;;;;;;;;;6239751;23;20103;-57
2022/07/13 11:51:45;;;;;;;9.15;3.13;;;;;;;;;;6239073;23;20051;-48
2022/07/13 11:54:12;;;;;;;;;;;;;;;;;;6240302;23;20408;-46
2022/07/13 11:56:47;;;;;;;10.00;2.78;;;;;;;;;;6239724;23;20260;-51
2022/07/13 11:59:15;;;;;;;10.45;3.17;;;;;;;;;;6239025;23;20028;-50
2022/07/13 12:01:49;;;;;;;9.63;2.60;;;;;;;;;;6240496;23;20051;-49
2022/07/13 12:04:23;;;;;;;6.05;2.58;;;;;;;;;;6210057;23;20099;-46
2022/07/13 12:06:51;;;;;;;9.40;2.70;;;;;;;;;;6208383;23;20111;-52
2022/07/13 12:09:18;;;;;;;;;;;;;;;;;;6210353;23;20356;-63
2022/07/13 12:11:46;;;;;;;12.13;2.80;;;;;;;;;;6210752;23;19915;-57
2022/07/13 12:14:13;;;;;;;8.63;3.15;;;;;;;;;;6209161;23;20075;-58
2022/07/13 12:16:41;;;;;;;11.45;3.20;;;;;;;;;;6209103;23;20026;-57
2022/07/13 12:19:09;;;;;;;7.18;2.63;;;;;;;;;;6209514;23;20108;-58
2022/07/13 12:21:38;;;;;;;10.50;2.65;;;;;;;;;;6207832;23;20517;-58
2022/07/13 12:24:06;;;;;;;11.73;2.70;;;;;;;;;;6208448;23;20032;-58
2022/07/13 12:26:33;;;;;;;15.55;3.40;;;;;;;;;;6209212;23;20028;-58
2022/07/13 12:29:01;;;;;;;;;;;;;;;;;;6209982;23;20409;-59
2022/07/13 12:31:28;;;;;;;11.90;3.35;;;;;;;;;;6209938;23;19973;-59
2022/07/13 12:33:55;;;;;;;;;;;;;;;;;;6209255;23;20023;-59
2022/07/13 12:36:25;;;;;;;11.32;3.08;;;;;;;;;;6209192;23;19931;-58
2022/07/13 12:38:53;;;;;;;9.77;2.60;;;;;;;;;;6209316;23;20076;-58
2022/07/13 12:41:26;;;;;;;8.93;2.67;;;;;;;;;;6210783;23;20032;-58
2022/07/13 12:43:56;;;;;;;10.82;2.97;;;;;;;;;;6210122;23;20544;-59
2022/07/13 12:46:23;;;;;;;11.20;2.92;;;;;;;;;;6209946;23;20544;-59
2022/07/13 12:49:01;;;;;;;15.40;3.00;;;;;;;;;;6208706;23;20025;-64
2022/07/13 12:51:48;;;;;;;8.25;2.97;;;;;;;;;;6209977;23;20497;-59
2022/07/13 12:54:16;;;;;;;11.75;2.90;;;;;;;;;;6209035;23;20025;-59
2022/07/13 12:56:48;;;;;;;9.90;2.75;;;;;;;;;;6207406;23;20021;-58
2022/07/13 12:59:18;;;;;;;16.35;3.38;;;;;;;;;;6209257;23;20028;-58
2022/07/13 13:01:45;;;;;;;10.10;3.03;;;;;;;;;;6208328;23;20020;-58
2022/07/13 13:04:13;;;;;;;12.48;3.20;;;;;;;;;;6237946;23;20055;-59
2022/07/13 13:06:40;;;;;;;;;;;;;;;;;;6238931;23;20082;-58
2022/07/13 13:09:09;;;;;;;13.20;3.17;;;;;;;;;;6238677;23;19919;-58
2022/07/13 13:11:37;;;;;;;12.38;3.00;;;;;;;;;;6239307;23;20060;-58
2022/07/13 13:14:04;;;;;;;16.60;3.90;;;;;;;;;;6239601;23;20019;-59
2022/07/13 13:16:31;;;;;;;;;;;;;;;;;;6240387;23;20039;-59
2022/07/13 13:18:59;;;;;;;16.60;4.00;;;;;;;;;;6239482;23;19919;-58
2022/07/13 13:21:26;;;;;;;;;;;;;;;;;;6239971;23;20776;-57
2022/07/13 13:23:55;;;;;;;11.18;2.83;;;;;;;;;;6239474;23;19916;-58
2022/07/13 13:26:22;;;;;;;17.17;3.78;;;;;;;;;;6239499;23;20021;-58
2022/07/13 13:31:45;;;;;;;12.15;2.92;;;;;;;;;;6239329;23;20246;-58
2022/07/13 13:34:13;;;;;;;13.25;3.50;;;;;;;;;;6238760;23;20078;-59
2022/07/13 13:36:48;;;;;;;13.35;3.47;;;;;;;;;;6239846;23;20024;-58
2022/07/13 13:39:16;;;;;;;12.30;3.03;;;;;;;;;;6238743;23;20657;-59
2022/07/13 13:41:45;;;;;;;17.83;2.92;;;;;;;;;;6240073;23;20024;-58
2022/07/13 13:44:13;;;;;;;11.15;3.75;;;;;;;;;;6238694;23;20403;-64
2022/07/13 13:46:41;;;;;;;8.95;2.92;;;;;;;;;;6239979;23;20040;-58
2022/07/13 13:49:08;;;;;;;12.07;3.05;;;;;;;;;;6239668;23;20028;-64
2022/07/13 13:51:35;;;;;;;11.00;3.53;;;;;;;;;;6240309;23;20066;-65
2022/07/13 13:54:23;;;;;;;7.88;3.00;;;;;;;;;;6238726;23;20484;-64
2022/07/13 13:56:58;;;;;;;12.57;3.70;;;;;;;;;;6214775;23;20020;-65
2022/07/13 13:59:25;;;;;;;15.15;3.17;;;;;;;;;;6239321;23;20028;-65
2022/07/13 14:01:53;;;;;;;14.48;3.28;;;;;;;;;;6237408;23;20028;-65
2022/07/13 14:04:20;;;;;;;;;;;;;;;;;;6238706;23;20035;-60
2022/07/13 14:06:47;;;;;;;15.15;4.25;;;;;;;;;;6237924;23;19919;-50
2022/07/13 14:09:14;;;;;;;;;;;;;;;;;;6240215;23;20039;-50
2022/07/13 14:11:42;;;;;;;16.70;3.72;;;;;;;;;;6240390;23;19919;-48
2022/07/13 14:14:09;;;;;;;9.30;2.67;;;;;;;;;;6240011;23;20054;-47
2022/07/13 14:16:37;;;;;;;;;;;;;;;;;;6254695;22;20136;-59
2022/07/13 14:19:04;;;;;;;12.13;3.95;;;;;;;;;;6269568;22;20327;-59
2022/07/13 14:21:33;;;;;;;14.13;3.55;;;;;;;;;;6268748;22;20030;-58
2022/07/13 14:24:02;;;;;;;13.63;3.70;;;;;;;;;;6257448;22;20028;-59
2022/07/13 14:26:49;;;;;;;14.35;3.53;;;;;;;;;;6264563;22;20330;-58
2022/07/13 14:29:48;;;;;;;10.98;3.66;;;;;;;;;;6054336;22;10000794;-55
2022/07/13 14:32:41;;;;;;;13.82;3.85;;;;;;;;;;5540157;23;10001534;-58
2022/07/13 14:35:33;;;;;;;16.75;3.72;;;;;;;;;;6179175;23;20028;-55
2022/07/13 14:38:02;;;;;;;;;;;;;;;;;;6180064;23;20525;-53
2022/07/13 14:40:49;;;;;;;16.65;4.18;;;;;;;;;;6178637;23;20007;-54
2022/07/13 14:43:41;;;;;;;10.75;3.45;;;;;;;;;;5103314;23;10000031;-52
2022/07/13 14:46:08;;;;;;;12.23;3.13;;;;;;;;;;5102876;23;10000047;-53
2022/07/13 14:48:36;;;;;;;14.13;3.83;;;;;;;;;;6180360;23;20029;-50
2022/07/13 14:51:17;;;;;;;15.23;3.50;;;;;;;;;;6180363;23;20025;-58
2022/07/13 14:53:47;;;;;;;14.20;3.67;;;;;;;;;;6180232;23;20306;-58
2022/07/13 14:56:14;;;;;;;16.05;4.00;;;;;;;;;;5104524;23;10000075;-60
2022/07/13 14:58:42;;;;;;;8.60;3.10;;;;;;;;;;5106826;23;10000008;-59
2022/07/13 15:01:15;;;;;;;11.50;3.25;;;;;;;;;;6179670;23;20474;-59
2022/07/13 15:03:45;;;;;;;11.63;3.22;;;;;;;;;;6179910;23;20028;-59
2022/07/13 15:06:12;;;;;;;12.55;3.70;;;;;;;;;;6180183;23;20342;-59
2022/07/13 15:08:40;;;;;;;12.23;3.47;;;;;;;;;;6179887;23;20052;-57
2022/07/13 15:11:27;;;;;;;12.60;3.40;;;;;;;;;;6177329;23;20112;-52
2022/07/13 15:13:59;;;;;;;12.57;3.90;;;;;;;;;;6179870;23;20017;-50
2022/07/13 15:16:26;;;;;;;15.23;4.05;;;;;;;;;;6175156;23;20032;-52
2022/07/13 15:18:54;;;;;;;11.52;3.88;;;;;;;;;;6127448;23;20054;-48
2022/07/13 15:21:22;;;;;;;13.90;4.05;;;;;;;;;;6119386;23;20026;-52
2022/07/13 15:23:49;;;;;;;10.07;3.70;;;;;;;;;;6121337;23;20026;-48
2022/07/13 15:26:16;;;;;;;13.60;3.92;;;;;;;;;;6119658;23;20032;-52
2022/07/13 15:28:44;;;;;;;13.77;3.63;;;;;;;;;;6118778;23;20068;-51
2022/07/13 15:31:19;;;;;;;12.35;3.60;;;;;;;;;;6118773;23;20025;-51
2022/07/13 15:33:46;;;;;;;17.90;4.00;;;;;;;;;;6119973;23;20078;-57
2022/07/13 15:36:14;;;;;;;;;;;;;;;;;;6120128;23;20081;-57
2022/07/13 15:38:41;;;;;;;17.15;4.15;;;;;;;;;;6119608;23;19921;-55
2022/07/13 15:41:24;;;;;;;16.67;4.07;;;;;;;;;;6119006;23;20026;-57
2022/07/13 15:43:52;;;;;;;20.83;4.72;;;;;;;;;;6119728;23;20030;-56
2022/07/13 15:46:20;;;;;;;16.98;3.70;;;;;;;;;;6119197;23;20026;-56
2022/07/13 15:49:01;;;;;;;17.38;4.20;;;;;;;;;;6119894;23;20191;-56
2022/07/13 15:51:30;;;;;;;13.50;3.55;;;;;;;;;;6116882;23;20026;-58
2022/07/13 15:53:58;;;;;;;19.52;4.28;;;;;;;;;;6118028;23;20096;-57
2022/07/13 15:56:27;;;;;;;15.90;3.70;;;;;;;;;;6120254;23;20361;-56
2022/07/13 15:59:18;;;;;;;23.92;4.40;;;;;;;;;;6119550;23;20020;-58
2022/07/13 16:02:12;;;;;;;32.00;5.32;;;;;;;;;;6118715;23;20300;-57
2022/07/13 16:05:05;;;;;;;22.73;4.50;;;;;;;;;;6119016;23;20024;-55
2022/07/13 16:07:57;;;;;;;17.95;4.07;;;;;;;;;;6118419;23;20092;-55
2022/07/13 16:10:54;;;;;;;17.73;4.30;;;;;;;;;;6120408;23;20101;-55
2022/07/13 16:13:48;;;;;;;19.77;3.80;;;;;;;;;;6116641;23;20029;-50
2022/07/13 16:16:42;;;;;;;19.08;4.47;;;;;;;;;;6120493;23;20096;-53
2022/07/13 16:19:36;;;;;;;14.27;4.18;;;;;;;;;;6083506;23;20040;-53
2022/07/13 16:22:29;;;;;;;27.20;5.63;;;;;;;;;;6085142;23;20052;-52
2022/07/13 16:25:22;;;;;;;27.13;5.20;;;;;;;;;;6086441;23;20038;-52
2022/07/13 16:28:18;;;;;;;21.63;4.32;;;;;;;;;;6086629;23;20036;-54
2022/07/13 16:31:13;;;;;;;17.77;4.03;;;;;;;;;;6085533;23;20550;-56
2022/07/13 16:34:07;;;;;;;22.45;5.00;;;;;;;;;;6085064;23;20343;-55
2022/07/13 16:37:00;;;;;;;28.50;5.10;;;;;;;;;;6085954;23;20071;-54
2022/07/13 16:39:52;;;;;;;21.15;5.20;;;;;;;;;;6086821;23;20462;-57
2022/07/13 16:42:47;;;;;;;20.40;4.65;;;;;;;;;;6087344;23;20478;-57
2022/07/13 16:45:41;;;;;;;19.10;4.40;;;;;;;;;;6086883;23;20040;-56
2022/07/13 16:48:35;;;;;;;21.13;4.38;;;;;;;;;;6086518;23;20356;-53
2022/07/13 16:51:27;;;;;;;22.65;4.93;;;;;;;;;;6086375;23;20081;-51
2022/07/13 16:54:21;;;;;;;17.30;4.13;;;;;;;;;;6086430;23;20042;-48
2022/07/13 16:57:15;;;;;;;20.33;4.45;;;;;;;;;;6087052;23;20093;-45
2022/07/13 17:00:10;;;;;;;19.80;4.45;;;;;;;;;;6086442;23;20060;-46
2022/07/13 17:03:04;;;;;;;26.85;4.75;;;;;;;;;;6085595;23;20089;-48
2022/07/13 17:05:58;;;;;;;19.23;4.20;;;;;;;;;;6087474;23;20022;-52
2022/07/13 17:08:51;;;;;;;19.02;4.40;;;;;;;;;;6086440;23;20036;-57
2022/07/13 17:11:44;;;;;;;21.00;3.47;;;;;;;;;;6085299;23;20689;-57
2022/07/13 17:14:38;;;;;;;18.70;4.05;;;;;;;;;;6086609;23;20041;-56
2022/07/13 17:17:31;;;;;;;15.88;3.70;;;;;;;;;;6083460;23;20085;-57
2022/07/13 17:20:26;;;;;;;16.25;3.70;;;;;;;;;;6086522;23;20033;-56
2022/07/13 17:23:19;;;;;;;13.68;3.45;;;;;;;;;;6086035;23;20041;-54
2022/07/13 17:26:11;;;;;;;17.63;3.95;;;;;;;;;;6085386;23;20037;-58
2022/07/13 17:29:06;;;;;;;19.90;3.92;;;;;;;;;;6082635;23;20057;-57
2022/07/13 17:32:01;;;;;;;11.18;3.20;;;;;;;;;;6066032;23;20037;-56
2022/07/13 17:34:56;;;;;;;22.63;4.20;;;;;;;;;;6084977;23;20045;-58
2022/07/13 17:37:50;;;;;;;19.48;3.60;;;;;;;;;;6085468;23;20456;-57
2022/07/13 17:40:44;;;;;;;18.30;3.92;;;;;;;;;;6081774;23;20117;-55
2022/07/13 17:46:31;;;;;;;12.70;3.58;;;;;;;;;;6132153;23;20470;-64
2022/07/13 17:48:59;;;;;;;17.75;3.90;;;;;;;;;;6147682;23;20092;-64
2022/07/13 17:51:26;;;;;;;17.05;3.83;;;;;;;;;;6148136;23;20030;-64
2022/07/13 17:53:54;;;;;;;16.58;3.38;;;;;;;;;;6142391;23;20029;-65
2022/07/13 17:56:21;;;;;;;14.75;3.15;;;;;;;;;;6143639;23;20025;-65
2022/07/13 17:58:48;;;;;;;14.88;3.55;;;;;;;;;;6143718;23;20071;-65
2022/07/13 18:01:16;;;;;;;;;;;;;;;;;;6145469;23;20464;-45
2022/07/13 18:03:43;;;;;;;12.63;3.00;;;;;;;;;;6145496;23;20472;-58
2022/07/13 18:06:10;;;;;;;;;;;;;;;;;;6146783;23;20025;-58
2022/07/13 18:08:39;;;;;;;16.40;3.67;;;;;;;;;;6145987;23;19924;-58
2022/07/13 18:11:08;;;;;;;11.82;3.30;;;;;;;;;;6147307;23;20529;-58
2022/07/13 18:13:37;;;;;;;11.57;3.03;;;;;;;;;;6147886;23;20029;-58
2022/07/13 18:16:04;;;;;;;13.07;2.80;;;;;;;;;;6146976;23;20084;-58
2022/07/13 18:18:33;;;;;;;10.23;2.80;;;;;;;;;;6145315;23;20078;-58
2022/07/13 18:21:00;;;;;;;;;;;;;;;;;;6147914;23;20049;-59
2022/07/13 18:26:14;;;;;;;9.10;2.17;;;;;;;;;;6144716;23;20466;-58
2022/07/13 18:28:41;;;;;;;8.30;2.33;;;;;;;;;;6145626;23;20029;-57
2022/07/13 18:31:08;;;;;;;6.43;2.05;;;;;;;;;;6148044;23;20076;-58
2022/07/13 18:33:37;;;;;;;8.52;2.00;;;;;;;;;;6147195;23;20025;-56
2022/07/13 18:36:05;;;;;;;9.55;2.05;;;;;;;;;;6147666;23;20064;-58
2022/07/13 18:38:33;;;;;;;8.38;1.73;;;;;;;;;;6147624;23;20021;-61
2022/07/13 18:41:00;;;;;;;;;;;;;;;;;;6144584;23;20076;-58
2022/07/13 18:43:28;;;;;;;6.07;1.70;;;;;;;;;;6145940;23;19947;-44
2022/07/13 18:45:56;;;;;;;7.68;1.55;;;;;;;;;;6145944;23;20025;-45
2022/07/13 18:48:23;;;;;;;5.03;1.30;;;;;;;;;;6147417;23;20101;-44
2022/07/13 18:50:51;;;;;;;6.78;1.65;;;;;;;;;;6147282;23;20084;-44
2022/07/13 18:53:18;;;;;;;;;;;;;;;;;;6146366;23;20030;-45
2022/07/13 18:55:45;;;;;;;6.50;1.63;;;;;;;;;;6146915;23;20448;-44
2022/07/13 18:58:13;;;;;;;11.25;1.73;;;;;;;;;;6146521;23;20402;-58
2022/07/13 19:00:40;;;;;;;;;;;;;;;;;;6146204;23;20531;-59
2022/07/13 19:03:07;;;;;;;13.90;1.70;;;;;;;;;;6145534;23;20338;-59
2022/07/13 19:05:37;;;;;;;4.03;1.38;;;;;;;;;;6146411;23;20068;-59
2022/07/13 19:08:05;;;;;;;8.23;1.52;;;;;;;;;;6146678;23;20026;-59
2022/07/13 19:10:32;;;;;;;;;;;;;;;;;;6146421;23;20053;-58
2022/07/13 19:13:02;;;;;;;7.45;1.33;;;;;;;;;;6146481;23;20221;-59
2022/07/13 19:15:31;;;;;;;3.97;1.33;;;;;;;;;;6147293;23;20029;-59
2022/07/13 19:17:58;;;;;;;8.15;1.45;;;;;;;;;;6146217;23;20418;-58
2022/07/13 19:20:26;;;;;;;;;;;;;;;;;;6146725;23;20034;-58
2022/07/13 19:22:53;;;;;;;5.70;1.13;;;;;;;;;;6144941;23;19925;-60
2022/07/13 19:28:07;;;;;;;7.28;1.25;;;;;;;;;;6145235;23;20038;-60
2022/07/13 19:30:34;;;;;;;;;;;;;;;;;;6147855;23;20025;-60
2022/07/13 19:33:02;;;;;;;5.15;1.33;;;;;;;;;;6146791;23;20231;-59
2022/07/13 19:35:30;;;;;;;15.93;2.03;;;;;;;;;;6146116;23;20021;-47
2022/07/13 19:37:57;;;;;;;6.13;1.73;;;;;;;;;;6146592;23;20029;-58
2022/07/13 19:40:41;;;;;;;9.57;1.73;;;;;;;;;;6145151;23;20080;-60
2022/07/13 19:43:08;;;;;;;7.45;1.48;;;;;;;;;;6145488;23;20029;-60
2022/07/13 19:45:36;;;;;;;9.10;1.80;;;;;;;;;;6144720;23;20025;-60
2022/07/13 19:48:03;;;;;;;8.43;1.80;;;;;;;;;;6146166;23;20033;-60
2022/07/13 19:50:31;;;;;;;;;;;;;;;;;;6144536;23;20541;-60
2022/07/13 19:52:58;;;;;;;8.35;1.70;;;;;;;;;;6145627;23;19921;-61
2022/07/13 19:55:26;;;;;;;9.05;1.48;;;;;;;;;;6147430;23;20022;-60
2022/07/13 19:57:54;;;;;;;7.68;1.88;;;;;;;;;;6145835;23;20096;-57
2022/07/13 20:00:26;;;;;;;7.72;1.77;;;;;;;;;;6147114;23;20541;-57
2022/07/13 20:02:54;;;;;;;13.27;2.03;;;;;;;;;;6145902;23;20025;-56
2022/07/13 20:05:21;;;;;;;11.98;1.98;;;;;;;;;;6147197;23;20029;-58
2022/07/13 20:08:03;;;;;;;6.63;1.70;;;;;;;;;;6146354;23;20025;-57
2022/07/13 20:10:50;;;;;;;10.13;1.73;;;;;;;;;;6146255;23;20057;-57
2022/07/13 20:13:17;;;;;;;12.30;1.73;;;;;;;;;;6145665;23;20083;-47
2022/07/13 20:15:45;;;;;;;7.25;1.50;;;;;;;;;;6146396;23;20026;-56
2022/07/13 20:18:12;;;;;;;12.50;2.20;;;;;;;;;;6145465;23;20032;-60
2022/07/13 20:20:39;;;;;;;11.38;2.20;;;;;;;;;;6144661;23;20112;-60
2022/07/13 20:23:07;;;;;;;9.05;1.50;;;;;;;;;;6145110;23;20026;-61
2022/07/13 20:25:34;;;;;;;6.03;1.52;;;;;;;;;;6147475;23;20053;-61
2022/07/13 20:28:01;;;;;;;8.68;1.70;;;;;;;;;;6143988;23;20025;-61
2022/07/13 20:30:29;;;;;;;12.35;1.88;;;;;;;;;;6144298;23;20106;-60
2022/07/13 20:32:56;;;;;;;8.60;1.70;;;;;;;;;;6146105;23;20321;-45
2022/07/13 20:35:24;;;;;;;8.48;1.88;;;;;;;;;;6146363;23;20026;-62
2022/07/13 20:37:51;;;;;;;;;;;;;;;;;;6146199;23;20029;-68
2022/07/13 20:40:18;;;;;;;12.40;2.10;;;;;;;;;;6146273;23;19924;-69
2022/07/13 20:42:47;;;;;;;6.57;1.38;;;;;;;;;;6145863;23;20098;-68
2022/07/13 20:45:15;;;;;;;5.75;1.63;;;;;;;;;;6147034;23;20036;-67
2022/07/13 20:47:42;;;;;;;10.02;1.77;;;;;;;;;;6146280;23;20026;-69
2022/07/13 20:50:09;;;;;;;11.90;1.85;;;;;;;;;;6146772;23;20029;-68
2022/07/13 20:52:37;;;;;;;;;;;;;;;;;;6146851;23;20477;-50
2022/07/13 20:55:04;;;;;;;10.35;1.92;;;;;;;;;;6147523;23;19920;-56
2022/07/13 20:57:32;;;;;;;8.77;1.80;;;;;;;;;;6144895;23;20026;-57
2022/07/13 21:00:00;;;;;;;9.05;1.77;;;;;;;;;;6144276;23;20025;-57
2022/07/13 21:02:27;;;;;;;7.93;1.75;;;;;;;;;;6147318;23;20025;-56
2022/07/13 21:04:55;;;;;;;;;;;;;;;;;;6145616;23;20386;-56
2022/07/13 21:07:22;;;;;;;6.43;1.42;;;;;;;;;;6146888;23;19921;-57
2022/07/13 21:09:49;;;;;;;9.75;1.55;;;;;;;;;;6146410;23;20322;-56
2022/07/13 21:12:17;;;;;;;7.07;1.50;;;;;;;;;;6146523;23;20021;-62
2022/07/13 21:14:44;;;;;;;3.47;1.27;;;;;;;;;;6148018;23;20467;-67
2022/07/13 21:17:13;;;;;;;11.38;1.60;;;;;;;;;;6147870;23;20029;-67
2022/07/13 21:19:40;;;;;;;6.18;1.90;;;;;;;;;;6148552;23;20021;-67
2022/07/13 21:22:08;;;;;;;9.20;1.90;;;;;;;;;;6149617;23;20470;-67
2022/07/13 21:24:35;;;;;;;7.30;1.63;;;;;;;;;;6150037;23;20096;-67
2022/07/13 21:27:03;;;;;;;7.80;1.60;;;;;;;;;;6149271;23;20029;-68
2022/07/13 21:29:30;;;;;;;;;;;;;;;;;;6149877;23;20402;-60
2022/07/13 21:31:57;;;;;;;7.82;1.83;;;;;;;;;;6148715;23;19920;-60
2022/07/13 21:34:24;;;;;;;7.07;1.35;;;;;;;;;;6148784;23;20060;-67
2022/07/13 21:36:52;;;;;;;10.27;1.77;;;;;;;;;;6148820;23;20030;-67
2022/07/13 21:39:20;;;;;;;7.97;1.20;;;;;;;;;;6149877;23;20329;-68
2022/07/13 21:41:47;;;;;;;10.57;1.80;;;;;;;;;;6150368;23;20108;-67
2022/07/13 21:44:14;;;;;;;10.05;2.03;;;;;;;;;;6151308;23;20463;-67
2022/07/13 21:46:45;;;;;;;14.25;2.22;;;;;;;;;;6150604;23;20084;-68
2022/07/13 21:49:12;;;;;;;5.55;1.48;;;;;;;;;;6151070;23;20132;-67
2022/07/13 21:51:40;;;;;;;10.38;1.92;;;;;;;;;;6149511;23;20411;-60
2022/07/13 21:54:07;;;;;;;11.25;2.05;;;;;;;;;;6149808;23;20025;-60
2022/07/13 21:56:34;;;;;;;10.23;1.52;;;;;;;;;;6151402;23;20399;-61
2022/07/13 21:59:02;;;;;;;10.13;2.33;;;;;;;;;;6150512;23;20021;-61
2022/07/13 22:01:29;;;;;;;5.40;1.13;;;;;;;;;;6151578;23;20485;-60
2022/07/13 22:03:56;;;;;;;;;;;;;;;;;;6150592;23;20053;-60
2022/07/13 22:06:24;;;;;;;6.32;1.50;;;;;;;;;;6151331;23;19921;-60
2022/07/13 22:08:52;;;;;;;6.50;1.52;;;;;;;;;;6150558;23;20026;-57
2022/07/13 22:11:38;;;;;;;14.52;1.88;;;;;;;;;;6151507;23;20025;-47
2022/07/13 22:14:24;;;;;;;7.70;1.65;;;;;;;;;;6151150;23;20028;-46
2022/07/13 22:17:10;;;;;;;8.18;2.10;;;;;;;;;;6150869;23;20032;-45
2022/07/13 22:19:56;;;;;;;13.30;1.65;;;;;;;;;;6151193;23;20536;-44